createdAt,value
2023-02-13T00:04:50.811Z,32.93
2023-02-13T00:09:54.816Z,37.23
2023-02-13T00:14:59.110Z,33.17
2023-02-13T00:20:01.807Z,34.60
2023-02-13T00:25:06.960Z,34.67
2023-02-13T00:30:10.526Z,35.13
2023-02-13T00:35:13.225Z,34.10
2023-02-13T00:40:17.267Z,32.97
2023-02-13T00:45:19.901Z,35.20
2023-02-13T00:50:22.547Z,35.83
2023-02-13T00:55:26.628Z,36.10
2023-02-13T01:00:29.281Z,34.53
2023-02-13T01:05:32.164Z,35.33
2023-02-13T01:10:37.771Z,28.20
2023-02-13T01:15:40.895Z,31.20
2023-02-13T01:20:44.734Z,30.07
2023-02-13T01:25:48.699Z,32.17
2023-02-13T01:30:55.107Z,30.97
2023-02-13T01:35:58.129Z,31.97
2023-02-13T01:41:02.233Z,31.30
2023-02-13T01:46:04.979Z,26.50
2023-02-13T01:51:10.776Z,31.47
2023-02-13T01:56:19.003Z,29.13
2023-02-13T02:01:22.821Z,28.57
2023-02-13T02:06:29.122Z,27.80
2023-02-13T02:11:38.541Z,27.87
2023-02-13T02:16:41.209Z,27.90
2023-02-13T02:22:17.148Z,27.80
2023-02-13T02:27:47.812Z,28.93
2023-02-13T02:33:00.241Z,29.97
2023-02-13T02:38:12.931Z,27.53
2023-02-13T02:43:29.600Z,28.43
2023-02-13T02:48:58.869Z,31.37
2023-02-13T02:54:30.258Z,27.80
2023-02-13T02:59:51.577Z,27.97
2023-02-13T03:05:28.886Z,30.43
2023-02-13T03:10:53.773Z,27.03
2023-02-13T03:16:19.621Z,27.50
2023-02-13T03:21:51.444Z,30.67
2023-02-13T03:27:02.329Z,27.40
2023-02-13T03:32:12.702Z,29.30
2023-02-13T03:37:36.797Z,30.23
2023-02-13T03:42:46.314Z,30.43
2023-02-13T03:47:51.610Z,30.57
2023-02-13T03:52:59.830Z,31.40
2023-02-13T03:58:25.081Z,36.90
2023-02-13T04:03:32.402Z,37.07
2023-02-13T04:08:36.546Z,35.37
2023-02-13T04:13:44.522Z,36.53
2023-02-13T04:18:49.318Z,32.93
2023-02-13T04:31:03.378Z,40.43
2023-02-13T05:14:24.266Z,44.73
2023-02-13T05:45:17.494Z,42.90
2023-02-13T05:51:10.446Z,41.83
2023-02-13T06:15:24.281Z,36.60
2023-02-13T06:20:46.824Z,38.60
2023-02-13T07:02:36.453Z,37.10
2023-02-13T07:38:33.693Z,34.33
2023-02-13T07:43:36.402Z,37.00
2023-02-13T07:48:39.079Z,40.70
2023-02-13T07:53:43.034Z,42.60
2023-02-13T07:58:45.835Z,42.13
2023-02-13T08:03:51.738Z,48.13
2023-02-13T08:09:09.777Z,39.57
2023-02-13T08:14:12.496Z,44.50
2023-02-13T08:19:15.173Z,35.40
2023-02-13T08:24:19.229Z,37.87
2023-02-13T08:29:21.897Z,39.33
2023-02-13T08:34:24.684Z,43.33
2023-02-13T08:39:28.632Z,36.87
2023-02-13T08:44:31.565Z,37.87
2023-02-13T08:49:34.486Z,35.67
2023-02-13T08:54:38.449Z,32.60
2023-02-13T08:59:41.474Z,39.80
2023-02-13T09:04:44.138Z,33.13
2023-02-13T09:09:48.215Z,31.83
2023-02-13T09:14:50.870Z,27.33
2023-02-13T09:19:53.545Z,27.27
2023-02-13T09:24:59.184Z,28.27
2023-02-13T09:30:01.942Z,29.17
2023-02-13T09:35:06.494Z,28.10
2023-02-13T09:40:19.000Z,24.43
2023-02-13T09:45:22.914Z,26.10
2023-02-13T09:50:28.262Z,23.67
2023-02-13T09:55:40.914Z,23.07
2023-02-13T10:00:47.094Z,24.30
2023-02-13T10:06:01.119Z,23.17
2023-02-13T10:11:23.036Z,23.73
2023-02-13T10:16:29.940Z,22.80
2023-02-13T10:21:37.226Z,23.70
2023-02-13T10:26:45.449Z,24.53
2023-02-13T10:31:50.697Z,22.07
2023-02-13T10:36:53.498Z,21.30
2023-02-13T10:42:06.596Z,18.33
2023-02-13T10:47:20.214Z,17.90
2023-02-13T10:52:32.527Z,24.00
2023-02-13T10:57:58.343Z,20.27
2023-02-13T11:03:01.379Z,15.83
2023-02-13T11:08:04.610Z,13.10
2023-02-13T11:13:19.743Z,15.17
2023-02-13T11:18:24.656Z,14.27
2023-02-13T11:23:37.280Z,11.77
2023-02-13T11:28:50.635Z,13.23
2023-02-13T11:33:53.648Z,11.97
2023-02-13T11:39:01.613Z,10.87
2023-02-13T11:44:06.106Z,11.33
2023-02-13T11:49:18.266Z,11.60
2023-02-13T11:54:31.895Z,13.43
2023-02-13T11:59:42.851Z,12.73
2023-02-13T12:04:46.241Z,15.70
2023-02-13T12:09:53.899Z,12.20
2023-02-13T12:14:59.227Z,11.93
2023-02-13T12:20:02.294Z,7.73
2023-02-13T12:25:46.167Z,9.47
2023-02-13T12:31:14.827Z,10.87
2023-02-13T12:36:22.256Z,9.73
2023-02-13T12:41:32.617Z,9.10
2023-02-13T12:46:45.357Z,8.10
2023-02-13T12:51:54.701Z,10.23
2023-02-13T12:57:12.635Z,7.13
2023-02-13T13:03:06.603Z,7.90
2023-02-13T13:08:37.131Z,9.43
2023-02-13T13:13:53.193Z,7.47
2023-02-13T13:19:08.870Z,8.37
2023-02-13T13:24:25.695Z,6.90
2023-02-13T13:29:43.673Z,6.93
2023-02-13T13:34:48.203Z,5.53
2023-02-13T13:53:08.777Z,9.30
2023-02-13T13:59:10.279Z,10.13
2023-02-13T14:28:57.460Z,7.83
2023-02-13T14:34:02.488Z,7.20
2023-02-13T14:39:08.394Z,8.20
2023-02-13T14:44:17.902Z,11.20
2023-02-13T14:49:24.100Z,9.30
2023-02-13T14:54:30.523Z,7.73
2023-02-13T14:59:37.820Z,11.03
2023-02-13T15:04:43.907Z,11.07
2023-02-13T15:09:52.459Z,11.27
2023-02-13T15:14:56.632Z,13.13
2023-02-13T15:20:05.878Z,11.93
2023-02-13T15:25:10.006Z,15.27
2023-02-13T15:30:23.680Z,13.03
2023-02-13T15:35:28.991Z,17.37
2023-02-13T15:40:37.826Z,13.47
2023-02-13T15:45:44.477Z,16.97
2023-02-13T15:50:48.091Z,15.73
2023-02-13T15:55:58.573Z,13.67
2023-02-13T16:01:07.329Z,16.00
2023-02-13T16:06:15.679Z,17.47
2023-02-13T16:11:31.416Z,18.07
2023-02-13T16:16:42.945Z,16.20
2023-02-13T16:21:49.833Z,17.70
2023-02-13T16:26:52.950Z,14.13
2023-02-13T16:32:11.474Z,16.37
2023-02-13T16:37:31.083Z,15.33
2023-02-13T16:42:33.759Z,16.47
2023-02-13T16:47:37.777Z,17.97
2023-02-13T16:52:40.476Z,17.63
2023-02-13T16:57:44.266Z,16.60
2023-02-13T17:02:50.668Z,16.27
2023-02-13T17:07:57.026Z,18.07
2023-02-13T17:13:02.458Z,16.30
2023-02-13T17:18:06.669Z,17.73
2023-02-13T17:23:17.250Z,19.20
2023-02-13T17:28:22.529Z,17.13
2023-02-13T17:33:28.613Z,18.70
2023-02-13T17:38:31.285Z,21.67
2023-02-13T17:43:33.960Z,19.57
2023-02-13T17:48:37.941Z,22.73
2023-02-13T17:53:40.906Z,23.07
2023-02-13T17:58:43.560Z,19.30
2023-02-13T18:03:47.532Z,22.37
2023-02-13T18:08:50.184Z,24.10
2023-02-13T18:13:53.212Z,23.07
2023-02-13T18:18:57.546Z,24.00
2023-02-13T18:24:00.193Z,23.70
2023-02-13T18:29:02.888Z,24.50
2023-02-13T18:34:07.064Z,25.17
2023-02-13T18:39:09.745Z,25.10
2023-02-13T18:44:23.328Z,26.07
2023-02-13T18:49:32.054Z,23.47
2023-02-13T18:54:34.918Z,27.50
2023-02-13T18:59:37.659Z,27.80
2023-02-13T19:04:41.872Z,26.87
2023-02-13T19:09:46.754Z,29.67
2023-02-13T19:14:49.525Z,24.83
2023-02-13T22:02:33.421Z,30.93
2023-02-13T22:07:57.831Z,35.23
2023-02-13T22:13:00.561Z,32.47
2023-02-13T22:18:03.227Z,31.10
2023-02-13T22:23:07.249Z,30.07
2023-02-13T22:28:09.984Z,35.70
2023-02-13T22:33:12.702Z,33.20
2023-02-13T22:38:16.704Z,30.43
2023-02-13T22:43:19.455Z,31.17
2023-02-13T22:48:22.079Z,34.20
2023-02-13T22:53:26.211Z,35.13
2023-02-13T22:58:29.211Z,36.90
2023-02-13T23:03:33.430Z,39.10
2023-02-13T23:08:38.593Z,30.17
2023-02-13T23:13:42.244Z,33.27
2023-02-13T23:18:47.655Z,31.03
2023-02-13T23:23:51.898Z,32.90
2023-02-13T23:28:54.538Z,33.07
2023-02-13T23:33:57.275Z,33.30
2023-02-13T23:39:04.094Z,33.10
2023-02-13T23:44:06.777Z,34.40
2023-02-13T23:49:09.497Z,35.13
2023-02-13T23:54:16.799Z,31.53
2023-02-13T23:59:20.310Z,34.43
